Terminal Aerodrome Forecast
Issued by NWS

Home | Current Version | Previous Version | Text Only | Print | Product List | Glossary On
Versions: 1 2 3 4 5 6 7 8 9 10 11 12 13 14 15 16 17 18 19 20 21 22 23 24 25 26 27 28 29 30 31
000
FTUS44 KHGX 200521
TAFCXO
TAF
KCXO 200521Z 2006/2106 15011KT P6SM SCT012 BKN025
     FM200800 15012KT P6SM BKN008 OVC012
     FM201600 16014G42KT P6SM BKN012 OVC025
     FM202000 16016KT P6SM -TSRA BKN025CB BKN050 OVC120
     FM210200 15013KT P6SM VCTS BKN015CB OVC025=

USA.gov is the U.S. government's official web portal to all federal, state and local government web resources and services.